Hauptseite
METAR-TAF:

METAR-TAF

Flughäfen :

Flughafen Lahr

Lahr, Deutschland

Breite: 48-22-09N, Länge: 007-49-40E, Höhe: 156 m

Beobachtung

Neuester Wetterbericht von vor 21 Minuten, um 01:20 UTC
Wind 5 kt aus Süd/Südost
Temperatur 2°C
Luftfeuchtigkeit 87%
Luftdruck 1038 hPa
Sichtweite: 0450 m

METAR: EDTL 050120Z AUTO 16005KT 0600 0450 R03/P2000N // FEW057/// 02/00 Q1038

Zeit: 02:41 (01:41 UTC)

Prognose

Neuester Wetterbericht von vor 8 Stunden und 41 Minuten, um 17:00 UTC
Gültige Prognose vom 04 um 18 UTC bis 04 um 24 UTC
Wind 3 kt aus unterschiedlichen Richtungen
Sichtweite 10 km oder mehr
keine Wolken unter 1500 m und keine Kumulonimbus oder Gewitterwolken

TAF: EDTL 041700Z 0418/0424 VRB03KT CAVOK

Wetterbeobachtungen und Prognosen von mehr als 4000 Flughäfen (METAR und TAF Bericht).

Die verfügbaren Stationen werden durch gelbe und rote Markierungen auf der Karte dargestellt.

Führen Sie die Maus auf sie, um den Namen der Station zu sehen.

Darauf klicken, um die Beobachtung von Wetterbeobachtungen und Prognosen zu sehen.

Um die Karte zu ändern : klicken Sie auf den grünen Tasten mit einem schwarzen Kreuz Zum Vergrößern, auf den grünen Button mit einem Gedankenstrich zu verkleinern, oder auf die grünen Pfeile für benachbarte Karten.


METAR-TAF: